.
WxDataArchive / Data Records for 2010-05-11
2010-05-10 May 2010 2010-05-12

Data Records for Tuesday, 11 May 2010

Time	Temp	Chill	HIndex	Humid	Dewpt	 Wind 	HiWind	WindDir	Rain 	Barom 
-----	----	-----	------	-----	-----	------	------	-------	-----	----- 
00:00	46.8	44.5	46.8	51	29.6	5	11	90	0.00	30.224 
00:05	46.8	45.2	46.8	52	30.1	4	14	90	0.00	30.224 
00:10	46.7	44.3	46.7	52	30.0	5	13	90	0.00	30.224 
00:15	46.7	45.1	46.7	52	30.0	4	9	90	0.00	30.207 
00:20	46.7	45.1	46.7	52	30.0	4	11	90	0.00	30.207 
00:25	46.7	45.1	46.7	52	30.0	4	11	112	0.00	30.207 
00:30	46.7	46.7	46.7	51	29.5	3	9	90	0.00	30.200 
00:35	46.7	44.3	46.7	50	29.1	5	11	90	0.00	30.200 
00:40	46.8	45.2	46.8	49	28.7	4	10	90	0.00	30.200 
00:45	46.8	45.2	46.8	49	28.7	4	12	112	0.00	30.191 
00:50	46.8	45.2	46.8	49	28.7	4	9	90	0.00	30.191 
00:55	46.7	45.1	46.7	49	28.6	4	7	90	0.00	30.191 
01:00	46.7	45.1	46.7	49	28.6	4	12	90	0.00	30.183 
01:05	46.7	45.1	46.7	49	28.6	4	11	90	0.00	30.183 
01:10	46.7	46.7	46.7	50	29.1	3	9	90	0.00	30.183 
01:15	46.7	46.7	46.7	51	29.5	3	11	90	0.00	30.190 
01:20	46.7	46.7	46.7	50	29.1	3	6	90	0.00	30.190 
01:25	46.7	46.7	46.7	51	29.5	2	7	112	0.00	30.190 
01:30	46.7	46.7	46.7	51	29.5	2	7	90	0.00	30.193 
01:35	46.7	46.7	46.7	54	30.9	2	6	90	0.00	30.193 
01:40	46.5	46.5	46.5	57	32.1	1	4	112	0.00	30.193 
01:45	46.4	46.4	46.4	56	31.6	2	5	90	0.00	30.205 
01:50	46.4	46.4	46.4	56	31.6	2	5	90	0.00	30.205 
01:55	46.4	46.4	46.4	57	32.0	1	4	90	0.00	30.205 
02:00	46.2	46.2	46.2	60	33.1	1	5	90	0.00	30.208 
02:05	46.0	46.0	46.0	64	34.5	1	4	112	0.00	30.208 
02:10	45.5	45.5	45.5	67	35.2	1	3	90	0.01	30.208 
02:15	44.9	44.9	44.9	70	35.7	2	5	90	0.01	30.201 
02:20	44.5	44.5	44.5	73	36.4	1	4	90	0.01	30.201 
02:25	44.1	44.1	44.1	75	36.7	1	3	90	0.00	30.201 
02:30	43.8	43.8	43.8	77	37.1	1	5	90	0.01	30.176 
02:35	43.5	43.5	43.5	78	37.1	1	3	90	0.00	30.176 
02:40	43.3	43.3	43.3	79	37.2	2	4	68	0.01	30.176 
02:45	43.2	43.2	43.2	81	37.8	2	6	90	0.01	30.161 
02:50	43.1	43.1	43.1	81	37.7	2	5	90	0.01	30.161 
02:55	42.9	42.9	42.9	82	37.8	2	6	112	0.01	30.161 
03:00	42.8	42.8	42.8	83	38.0	1	3	112	0.00	30.162 
03:05	42.8	42.8	42.8	84	38.3	2	4	112	0.01	30.162 
03:10	42.8	42.8	42.8	84	38.3	2	5	90	0.00	30.162 
03:15	42.8	42.8	42.8	85	38.6	2	5	68	0.01	30.145 
03:20	42.8	42.8	42.8	85	38.6	2	5	90	0.00	30.145 
03:25	42.8	42.8	42.8	86	38.9	2	4	90	0.00	30.145 
03:30	42.9	42.9	42.9	85	38.7	3	6	90	0.00	30.133 
03:35	43.1	43.1	43.1	86	39.2	3	6	90	0.00	30.133 
03:40	43.1	43.1	43.1	86	39.2	3	10	90	0.00	30.133 
03:45	43.3	41.1	43.3	85	39.1	4	9	90	0.00	30.117 
03:50	43.3	41.1	43.3	86	39.4	4	12	90	0.01	30.117 
03:55	43.5	41.4	43.5	86	39.6	4	7	90	0.00	30.117 
04:00	43.5	43.5	43.5	87	39.9	3	7	90	0.00	30.086 
04:05	43.5	41.4	43.5	87	39.9	4	9	90	0.00	30.086 
04:10	43.6	43.6	43.6	87	40.0	3	9	90	0.00	30.086 
04:15	43.8	41.7	43.8	87	40.2	4	7	112	0.01	30.080 
04:20	43.8	43.8	43.8	87	40.2	3	10	90	0.00	30.080 
04:25	43.8	43.8	43.8	88	40.5	3	7	90	0.01	30.080 
04:30	43.8	41.7	43.8	88	40.5	4	11	90	0.01	30.083 
04:35	43.9	43.9	43.9	88	40.6	2	5	90	0.01	30.083 
04:40	43.8	43.8	43.8	89	40.8	2	6	90	0.02	30.083 
04:45	43.8	41.7	43.8	89	40.8	4	10	90	0.02	30.083 
04:50	43.8	43.8	43.8	90	41.1	3	9	90	0.01	30.083 
04:55	43.8	40.9	43.8	90	41.1	5	10	90	0.02	30.083 
05:00	43.6	40.0	43.6	91	41.1	6	11	112	0.01	30.038 
05:05	43.6	40.0	43.6	92	41.4	6	15	90	0.02	30.038 
05:10	43.8	40.9	43.8	92	41.6	5	12	90	0.02	30.038 
05:15	43.6	40.0	43.6	92	41.4	6	13	90	0.02	30.021 
05:20	43.6	40.0	43.6	92	41.4	6	12	90	0.01	30.021 
05:25	43.6	40.0	43.6	93	41.7	6	14	112	0.01	30.021 
05:30	43.6	40.0	43.6	93	41.7	6	12	112	0.01	29.992 
05:35	43.6	39.5	43.6	93	41.7	7	15	90	0.01	29.992 
05:40	43.6	39.5	43.6	93	41.7	7	16	90	0.00	29.992 
05:45	43.6	39.5	43.6	95	42.3	7	17	90	0.00	29.983 
05:50	43.6	40.7	43.6	93	41.7	5	17	90	0.01	29.983 
05:55	43.6	41.5	43.6	93	41.7	4	12	90	0.00	29.983 
06:00	43.8	41.7	43.8	93	41.9	4	10	90	0.01	30.006 
06:05	43.8	43.8	43.8	93	41.9	3	7	112	0.02	30.006 
06:10	43.8	41.7	43.8	93	41.9	4	10	112	0.01	30.006 
06:15	43.8	43.8	43.8	94	42.2	3	10	112	0.01	30.019 
06:20	43.8	41.7	43.8	94	42.2	4	10	90	0.01	30.019 
06:25	43.8	43.8	43.8	94	42.2	1	5	90	0.00	30.019 
06:30	43.9	43.9	43.9	94	42.3	2	9	90	0.01	30.026 
06:35	43.9	43.9	43.9	94	42.3	2	11	112	0.04	30.026 
06:40	43.8	43.8	43.8	94	42.2	2	10	112	0.03	30.026 
06:45	43.8	43.8	43.8	94	42.2	3	9	112	0.04	30.053 
06:50	43.8	43.8	43.8	94	42.2	3	8	112	0.03	30.053 
06:55	43.6	40.7	43.6	94	42.0	5	14	90	0.04	30.053 
07:00	43.6	40.0	43.6	94	42.0	6	12	112	0.01	30.005 
07:05	43.6	41.5	43.6	95	42.3	4	11	112	0.02	30.005 
07:10	43.6	41.5	43.6	95	42.3	4	9	90	0.02	30.005 
07:15	43.6	41.5	43.6	95	42.3	4	10	90	0.02	30.018 
07:20	43.8	41.7	43.8	95	42.5	4	10	90	0.03	30.018 
07:25	43.8	41.7	43.8	95	42.5	4	13	90	0.04	30.018 
07:30	43.6	41.5	43.6	95	42.3	4	11	90	0.03	30.015 
07:35	43.8	43.8	43.8	95	42.5	3	9	112	0.03	30.015 
07:40	43.8	40.9	43.8	95	42.5	5	12	90	0.02	30.015 
07:45	43.8	40.9	43.8	95	42.5	5	13	90	0.01	30.003 
07:50	43.8	41.7	43.8	95	42.5	4	7	112	0.01	30.003 
07:55	43.9	41.8	43.9	95	42.6	4	13	90	0.00	30.003 
08:00	43.9	41.8	43.9	96	42.8	4	7	112	0.00	29.998 
08:05	44.1	42.1	44.1	95	42.8	4	9	112	0.01	29.998 
08:10	44.1	42.1	44.1	96	43.0	4	10	112	0.00	29.998 
08:15	44.1	42.1	44.1	95	42.8	4	9	112	0.00	29.990 
08:20	44.1	41.3	44.1	96	43.0	5	11	90	0.00	29.990 
08:25	44.1	42.1	44.1	96	43.0	4	10	112	0.00	29.990 
08:30	44.1	40.6	44.1	96	43.0	6	12	90	0.00	29.977 
08:35	44.1	41.3	44.1	96	43.0	5	12	90	0.00	29.977 
08:40	44.2	42.2	44.2	96	43.1	4	11	90	0.00	29.977 
08:45	44.2	42.2	44.2	96	43.1	4	9	112	0.00	29.965 
08:50	44.2	41.4	44.2	96	43.1	5	11	112	0.00	29.965 
08:55	44.2	41.4	44.2	96	43.1	5	10	112	0.00	29.965 
09:00	44.2	41.4	44.2	96	43.1	5	11	90	0.01	29.959 
09:05	44.2	41.4	44.2	95	42.9	5	11	90	0.00	29.959 
09:10	44.2	41.4	44.2	96	43.1	5	9	112	0.00	29.959 
09:15	44.3	41.5	44.3	96	43.2	5	11	90	0.00	29.950 
09:20	44.3	41.5	44.3	96	43.2	5	9	90	0.00	29.950 
09:25	44.3	41.5	44.3	95	43.0	5	10	90	0.00	29.950 
09:30	44.3	41.5	44.3	95	43.0	5	14	112	0.00	29.939 
09:35	44.5	42.5	44.5	96	43.4	4	14	112	0.00	29.939 
09:40	44.5	41.8	44.5	96	43.4	5	12	90	0.00	29.939 
09:45	44.5	41.8	44.5	96	43.4	5	11	112	0.01	29.918 
09:50	44.5	44.5	44.5	96	43.4	3	8	112	0.00	29.918 
09:55	44.6	42.6	44.6	96	43.5	4	7	112	0.00	29.918 
10:00	44.6	44.6	44.6	96	43.5	3	7	90	0.00	29.917 
10:05	44.6	44.6	44.6	96	43.5	3	5	90	0.00	29.917 
10:10	44.6	42.6	44.6	96	43.5	4	10	90	0.00	29.917 
10:15	44.8	44.8	44.8	96	43.7	3	10	90	0.00	29.903 
10:20	44.8	42.1	44.8	96	43.7	5	10	90	0.00	29.903 
10:25	44.9	43.0	44.9	96	43.8	4	9	112	0.00	29.903 
10:30	45.1	45.1	45.1	96	44.0	2	7	112	0.00	29.900 
10:35	45.1	45.1	45.1	96	44.0	1	5	90	0.00	29.900 
10:40	45.2	43.3	45.2	96	44.1	4	7	90	0.01	29.900 
10:45	45.2	45.2	45.2	96	44.1	3	11	112	0.00	29.886 
10:50	45.5	45.5	45.5	96	44.4	2	9	112	0.01	29.886 
10:55	45.7	43.2	45.7	96	44.6	5	12	112	0.00	29.886 
11:00	45.8	45.8	45.8	96	44.7	2	6	112	0.00	29.881 
11:05	46.0	46.0	46.0	96	44.9	3	7	112	0.00	29.881 
11:10	46.1	46.1	46.1	96	45.0	3	7	112	0.00	29.881 
11:15	46.2	46.2	46.2	96	45.1	1	5	112	0.00	29.879 
11:20	46.4	46.4	46.4	96	45.3	2	6	90	0.00	29.879 
11:25	46.5	46.5	46.5	96	45.4	1	4	90	0.00	29.879 
11:30	46.7	46.7	46.7	96	45.6	1	5	90	0.00	29.868 
11:35	47.0	47.0	47.0	96	45.9	2	4	112	0.01	29.868 
11:40	47.3	47.3	47.3	96	46.2	1	2	112	0.03	29.868 
11:45	47.4	47.4	47.4	96	46.3	1	4	90	0.01	29.871 
11:50	47.6	47.6	47.6	96	46.5	1	4	112	0.00	29.871 
11:55	47.9	47.9	47.9	96	46.8	0	2	112	0.00	29.871 
12:00	48.2	48.2	48.2	96	47.1	1	3	112	0.01	29.867 
12:05	48.5	48.5	48.5	96	47.4	0	1	112	0.00	29.867 
12:10	48.6	48.6	48.6	96	47.5	0	2	112	0.00	29.867 
12:15	48.8	48.8	48.8	96	47.7	0	2	112	0.00	29.858 
12:20	48.9	48.9	48.9	96	47.8	0	2	112	0.00	29.858 
12:25	49.2	49.2	49.2	96	48.1	0	1	112	0.00	29.858 
12:30	49.8	49.8	49.8	96	48.7	1	5	112	0.04	29.851 
12:35	50.2	50.2	50.2	97	49.4	1	5	90	0.03	29.851 
12:40	50.4	50.4	50.4	96	49.3	0	2	90	0.02	29.851 
12:45	50.5	50.5	50.5	96	49.4	0	0	---	0.01	29.849 
12:50	50.8	50.8	50.8	96	49.7	0	2	90	0.02	29.849 
12:55	51.3	51.3	51.3	97	50.5	0	1	90	0.01	29.849 
13:00	51.6	51.6	51.6	97	50.8	0	1	90	0.00	29.845 
13:05	51.9	51.9	51.9	97	51.1	0	0	---	0.00	29.845 
13:10	52.0	52.0	52.0	97	51.2	0	1	90	0.00	29.845 
13:15	52.2	52.2	52.2	97	51.4	0	1	90	0.00	29.834 
13:20	52.3	52.3	52.3	96	51.2	0	1	90	0.00	29.834 
13:25	52.5	52.5	52.5	96	51.4	0	1	90	0.00	29.834 
13:30	52.8	52.8	52.8	96	51.7	0	0	---	0.00	29.832 
13:35	52.9	52.9	52.9	96	51.8	0	0	---	0.00	29.832 
13:40	53.1	53.1	53.1	97	52.3	0	1	90	0.00	29.832 
13:45	53.2	53.2	53.2	96	52.1	0	2	90	0.00	29.822 
13:50	53.2	53.2	53.2	96	52.1	0	1	90	0.00	29.822 
13:55	53.2	53.2	53.2	96	52.1	0	1	90	0.00	29.822 
14:00	53.3	53.3	53.3	96	52.2	0	1	90	0.00	29.829 
14:05	53.3	53.3	53.3	96	52.2	0	1	90	0.00	29.829 
14:10	53.3	53.3	53.3	96	52.2	0	0	---	0.00	29.829 
14:15	53.2	53.2	53.2	96	52.1	0	0	---	0.00	29.824 
14:20	53.2	53.2	53.2	96	52.1	0	2	90	0.00	29.824 
14:25	53.5	53.5	53.5	97	52.7	1	2	90	0.00	29.824 
14:30	54.1	54.1	54.1	97	53.3	0	1	90	0.00	29.818 
14:35	54.8	54.8	54.8	97	54.0	0	0	---	0.00	29.818 
14:40	55.7	55.7	55.7	97	54.9	0	0	---	0.00	29.818 
14:45	56.9	56.9	56.9	97	56.1	0	0	---	0.00	29.815 
14:50	58.0	58.0	58.0	97	57.2	0	2	90	0.00	29.815 
14:55	58.9	58.9	58.9	97	58.0	0	1	90	0.00	29.815 
15:00	59.8	59.8	59.8	97	58.9	0	1	90	0.00	29.812 
15:05	60.4	60.4	60.4	97	59.5	0	1	292	0.01	29.812 
15:10	61.6	61.6	61.6	97	60.7	0	1	292	0.00	29.812 
15:15	61.8	61.8	61.8	97	60.9	0	1	292	0.00	29.807 
15:20	61.8	61.8	61.8	97	60.9	0	1	292	0.00	29.807 
15:25	62.0	62.0	62.0	97	61.1	0	1	292	0.00	29.807 
15:30	62.3	62.3	62.3	96	61.1	0	1	292	0.00	29.806 
15:35	62.3	62.3	62.3	96	61.1	0	2	292	0.00	29.806 
15:40	62.3	62.3	62.3	96	61.1	0	1	292	0.00	29.806 
15:45	62.6	62.6	62.6	96	61.4	0	0	---	0.00	29.804 
15:50	62.6	62.6	62.6	96	61.4	0	0	---	0.00	29.804 
15:55	62.7	62.7	62.7	95	61.2	0	0	---	0.00	29.804 
16:00	62.7	62.7	62.7	95	61.2	0	0	---	0.00	29.799 
16:05	62.9	62.9	62.9	95	61.4	0	0	---	0.00	29.799 
16:10	63.2	63.2	63.2	95	61.7	0	0	---	0.00	29.799 
16:15	63.4	63.4	63.4	94	61.6	0	0	---	0.00	29.796 
16:20	63.2	63.2	63.2	94	61.4	0	0	---	0.00	29.796 
16:25	63.4	63.4	63.4	94	61.6	0	0	---	0.00	29.796 
16:30	63.7	63.7	63.7	94	61.9	0	0	---	0.00	29.802 
16:35	63.9	63.9	63.9	93	61.8	0	0	---	0.00	29.802 
16:40	63.9	63.9	63.9	93	61.8	0	0	---	0.00	29.802 
16:45	63.9	63.9	63.9	92	61.5	0	0	---	0.00	29.806 
16:50	64.2	64.2	64.2	92	61.8	0	0	---	0.00	29.806 
16:55	64.7	64.7	64.7	92	62.3	0	0	---	0.00	29.806 
17:00	64.8	64.8	64.8	92	62.4	0	0	---	0.00	29.807 
17:05	65.0	65.0	65.0	92	62.6	0	2	90	0.00	29.807 
17:10	65.2	65.2	65.2	91	62.5	0	1	90	0.00	29.807 
17:15	65.5	65.5	65.5	89	62.2	0	2	90	0.00	29.812 
17:20	65.8	65.8	65.8	87	61.8	1	3	292	0.00	29.812 
17:25	66.0	66.0	66.0	84	61.0	1	5	248	0.00	29.812 
17:30	65.5	65.5	65.5	83	60.2	1	4	315	0.00	29.825 
17:35	64.7	64.7	64.7	84	59.7	0	1	315	0.00	29.825 
17:40	64.3	64.3	64.3	84	59.4	2	7	315	0.00	29.825 
17:45	65.0	65.0	65.0	78	58.0	4	7	270	0.00	29.840 
17:50	65.6	65.6	65.6	76	57.8	4	10	292	0.00	29.840 
17:55	65.8	65.8	65.8	75	57.6	2	5	315	0.00	29.840 
18:00	65.8	65.8	65.8	76	58.0	1	4	315	0.00	29.848 
18:05	65.6	65.6	65.6	76	57.8	2	5	270	0.00	29.848 
18:10	65.5	65.5	65.5	76	57.7	2	5	270	0.00	29.848 
18:15	65.3	65.3	65.3	75	57.2	4	10	270	0.00	29.855 
18:20	65.2	65.2	65.2	75	57.1	3	5	270	0.00	29.855 
18:25	65.2	65.2	65.2	75	57.1	3	6	270	0.00	29.855 
18:30	65.2	65.2	65.2	75	57.1	2	4	338	0.00	29.861 
18:35	65.2	65.2	65.2	76	57.4	2	7	315	0.00	29.861 
18:40	64.8	64.8	64.8	76	57.0	2	4	315	0.00	29.861 
18:45	63.7	63.7	63.7	79	57.1	2	6	270	0.00	29.871 
18:50	63.1	63.1	63.1	81	57.2	0	2	270	0.00	29.871 
18:55	62.4	62.4	62.4	83	57.2	0	2	270	0.00	29.871 
19:00	62.1	62.1	62.1	83	56.9	0	3	270	0.00	29.877 
19:05	62.0	62.0	62.0	84	57.1	0	1	270	0.00	29.877 
19:10	62.0	62.0	62.0	84	57.1	0	1	270	0.00	29.877 
19:15	62.1	62.1	62.1	84	57.2	1	3	270	0.00	29.886 
19:20	62.1	62.1	62.1	83	56.9	2	4	270	0.00	29.886 
19:25	62.4	62.4	62.4	82	56.8	0	2	270	0.00	29.886 
19:30	62.4	62.4	62.4	81	56.5	0	2	270	0.00	29.892 
19:35	62.6	62.6	62.6	81	56.7	0	4	270	0.00	29.892 
19:40	62.4	62.4	62.4	82	56.8	0	1	270	0.00	29.892 
19:45	62.4	62.4	62.4	82	56.8	0	1	270	0.00	29.904 
19:50	62.1	62.1	62.1	82	56.5	0	2	270	0.00	29.904 
19:55	61.8	61.8	61.8	82	56.2	0	1	270	0.00	29.904 
20:00	61.6	61.6	61.6	83	56.4	0	1	270	0.00	29.912 
20:05	61.3	61.3	61.3	83	56.1	0	1	270	0.00	29.912 
20:10	61.3	61.3	61.3	83	56.1	0	1	270	0.00	29.912 
20:15	61.2	61.2	61.2	83	56.0	0	1	270	0.00	29.920 
20:20	61.0	61.0	61.0	84	56.1	0	1	270	0.00	29.920 
20:25	60.9	60.9	60.9	84	56.0	0	3	270	0.00	29.920 
20:30	60.7	60.7	60.7	84	55.8	0	1	270	0.00	29.924 
20:35	60.5	60.5	60.5	84	55.6	0	1	270	0.00	29.924 
20:40	60.4	60.4	60.4	84	55.5	0	1	270	0.00	29.924 
20:45	60.1	60.1	60.1	84	55.2	0	0	---	0.00	29.936 
20:50	59.6	59.6	59.6	85	55.1	0	2	270	0.00	29.936 
20:55	59.3	59.3	59.3	85	54.8	0	1	270	0.00	29.936 
21:00	59.0	59.0	59.0	86	54.8	0	1	270	0.00	29.944 
21:05	58.9	58.9	58.9	86	54.7	0	1	270	0.00	29.944 
21:10	58.7	58.7	58.7	86	54.5	0	0	---	0.00	29.944 
21:15	58.6	58.6	58.6	87	54.7	0	0	---	0.00	29.950 
21:20	58.4	58.4	58.4	87	54.5	0	0	---	0.00	29.950 
21:25	58.3	58.3	58.3	88	54.8	0	0	---	0.00	29.950 
21:30	58.0	58.0	58.0	88	54.5	0	0	---	0.00	29.955 
21:35	57.8	57.8	57.8	88	54.3	0	0	---	0.00	29.955 
21:40	57.6	57.6	57.6	88	54.1	0	0	---	0.00	29.955 
21:45	57.5	57.5	57.5	88	54.0	0	0	---	0.00	29.965 
21:50	57.3	57.3	57.3	88	53.8	0	0	---	0.00	29.965 
21:55	57.3	57.3	57.3	89	54.1	0	0	---	0.00	29.965 
22:00	57.2	57.2	57.2	89	54.0	0	0	---	0.00	29.971 
22:05	57.0	57.0	57.0	89	53.8	0	0	---	0.00	29.971 
22:10	57.0	57.0	57.0	89	53.8	0	0	---	0.00	29.971 
22:15	56.9	56.9	56.9	89	53.7	0	0	---	0.00	29.978 
22:20	56.7	56.7	56.7	89	53.5	0	0	---	0.00	29.978 
22:25	56.7	56.7	56.7	89	53.5	0	1	270	0.00	29.978 
22:30	56.6	56.6	56.6	89	53.4	0	0	---	0.00	29.986 
22:35	56.5	56.5	56.5	89	53.3	0	0	---	0.00	29.986 
22:40	56.5	56.5	56.5	89	53.3	0	0	---	0.00	29.986 
22:45	56.3	56.3	56.3	89	53.1	0	0	---	0.00	29.987 
22:50	56.2	56.2	56.2	89	53.0	0	0	---	0.00	29.987 
22:55	56.2	56.2	56.2	89	53.0	0	0	---	0.00	29.987 
23:00	56.0	56.0	56.0	89	52.8	0	0	---	0.00	29.990 
23:05	55.9	55.9	55.9	89	52.7	0	1	270	0.00	29.990 
23:10	55.9	55.9	55.9	89	52.7	0	0	---	0.00	29.990 
23:15	55.7	55.7	55.7	90	52.8	0	0	---	0.00	29.987 
23:20	55.7	55.7	55.7	90	52.8	0	0	---	0.00	29.987 
23:25	55.6	55.6	55.6	90	52.7	0	0	---	0.00	29.987 
23:30	55.6	55.6	55.6	90	52.7	0	0	---	0.00	29.990 
23:35	55.6	55.6	55.6	90	52.7	0	0	---	0.00	29.990 
23:40	55.4	55.4	55.4	90	52.5	0	0	---	0.00	29.990 
23:45	55.4	55.4	55.4	90	52.5	0	0	---	0.00	29.998 
23:50	55.4	55.4	55.4	90	52.5	0	0	---	0.00	29.998 
23:55	55.3	55.3	55.3	90	52.4	0	0	---	0.00	29.998 

CoCoRaHS
IN-AL-39
A2 Web Hosting
Creative Commons License
GoDaddy
search engine by freefind advanced

loaded 2018-11-17 23:30:13 • last modified 2010-11-18 10:43:29
Privacy PolicyDisclaimer
• wx.awcolley.com is powered by PmWiki v.2002016 •
• all content (unless otherwise noted) © 2018 A W Colley